sensor_id;sensor_type;location;lat;lon;timestamp;temperature;humidity
55313;DHT22;46892;45.668;11.756;2022-08-05T01:28:59;23.80;74.10
55313;DHT22;46892;45.668;11.756;2022-08-05T01:31:27;23.70;74.20
55313;DHT22;46892;45.668;11.756;2022-08-05T01:34:14;23.70;74.60
55313;DHT22;46892;45.668;11.756;2022-08-05T01:36:48;23.60;75.50
55313;DHT22;46892;45.668;11.756;2022-08-05T01:39:16;23.70;75.00
55313;DHT22;46892;45.668;11.756;2022-08-05T01:41:44;23.70;74.90
55313;DHT22;46892;45.668;11.756;2022-08-05T01:44:11;23.70;74.40
55313;DHT22;46892;45.668;11.756;2022-08-05T01:46:39;23.70;75.10
55313;DHT22;46892;45.668;11.756;2022-08-05T01:49:06;23.70;74.80
55313;DHT22;46892;45.668;11.756;2022-08-05T01:51:35;23.70;75.40
55313;DHT22;46892;45.668;11.756;2022-08-05T01:54:04;23.70;74.80
55313;DHT22;46892;45.668;11.756;2022-08-05T01:56:32;23.80;75.00
55313;DHT22;46892;45.668;11.756;2022-08-05T01:59:02;23.80;74.10
55313;DHT22;46892;45.668;11.756;2022-08-05T02:01:29;23.70;74.00
55313;DHT22;46892;45.668;11.756;2022-08-05T02:03:56;23.70;75.30
55313;DHT22;46892;45.668;11.756;2022-08-05T02:06:23;23.70;74.90
55313;DHT22;46892;45.668;11.756;2022-08-05T02:08:49;23.70;74.50
55313;DHT22;46892;45.668;11.756;2022-08-05T02:11:16;23.60;74.80
55313;DHT22;46892;45.668;11.756;2022-08-05T02:16:53;23.30;75.50
55313;DHT22;46892;45.668;11.756;2022-08-05T02:22:14;22.90;76.70
55313;DHT22;46892;45.668;11.756;2022-08-05T02:24:49;23.10;76.90
55313;DHT22;46892;45.668;11.756;2022-08-05T02:27:17;23.20;76.20
55313;DHT22;46892;45.668;11.756;2022-08-05T02:29:45;23.20;75.50
55313;DHT22;46892;45.668;11.756;2022-08-05T02:32:14;23.20;75.70
55313;DHT22;46892;45.668;11.756;2022-08-05T02:34:41;23.00;75.40
55313;DHT22;46892;45.668;11.756;2022-08-05T02:37:09;23.00;76.00
55313;DHT22;46892;45.668;11.756;2022-08-05T02:39:37;23.10;76.10
55313;DHT22;46892;45.668;11.756;2022-08-05T02:42:06;23.10;75.80
55313;DHT22;46892;45.668;11.756;2022-08-05T02:44:34;22.90;76.00
55313;DHT22;46892;45.668;11.756;2022-08-05T02:47:02;22.70;75.60
55313;DHT22;46892;45.668;11.756;2022-08-05T02:49:34;22.80;76.70
55313;DHT22;46892;45.668;11.756;2022-08-05T02:52:02;22.90;75.60
55313;DHT22;46892;45.668;11.756;2022-08-05T02:54:28;23.00;76.10
55313;DHT22;46892;45.668;11.756;2022-08-05T02:56:55;22.90;76.60
55313;DHT22;46892;45.668;11.756;2022-08-05T02:59:23;23.10;76.10
55313;DHT22;46892;45.668;11.756;2022-08-05T03:01:51;23.20;75.40
55313;DHT22;46892;45.668;11.756;2022-08-05T03:04:22;23.00;75.50
55313;DHT22;46892;45.668;11.756;2022-08-05T03:06:48;23.00;75.80
55313;DHT22;46892;45.668;11.756;2022-08-05T03:09:14;23.10;76.20
55313;DHT22;46892;45.668;11.756;2022-08-05T03:11:41;23.20;74.80
55313;DHT22;46892;45.668;11.756;2022-08-05T03:14:08;23.20;75.00
55313;DHT22;46892;45.668;11.756;2022-08-05T03:16:34;23.20;75.00
55313;DHT22;46892;45.668;11.756;2022-08-05T03:19:00;23.10;75.50
55313;DHT22;46892;45.668;11.756;2022-08-05T03:21:26;23.10;75.50
55313;DHT22;46892;45.668;11.756;2022-08-05T03:23:52;23.10;74.80
55313;DHT22;46892;45.668;11.756;2022-08-05T03:26:18;23.10;75.50
55313;DHT22;46892;45.668;11.756;2022-08-05T03:28:44;23.10;74.80
55313;DHT22;46892;45.668;11.756;2022-08-05T03:31:09;23.20;75.00
55313;DHT22;46892;45.668;11.756;2022-08-05T03:33:36;23.20;74.40
55313;DHT22;46892;45.668;11.756;2022-08-05T03:36:03;23.10;74.30
55313;DHT22;46892;45.668;11.756;2022-08-05T03:38:29;23.10;74.90
55313;DHT22;46892;45.668;11.756;2022-08-05T03:40:55;23.00;75.50
55313;DHT22;46892;45.668;11.756;2022-08-05T03:43:21;22.80;75.10
55313;DHT22;46892;45.668;11.756;2022-08-05T03:45:51;22.70;74.90
55313;DHT22;46892;45.668;11.756;2022-08-05T03:48:17;22.80;76.20
55313;DHT22;46892;45.668;11.756;2022-08-05T03:53:36;22.90;74.00
55313;DHT22;46892;45.668;11.756;2022-08-05T03:56:09;22.90;74.30
55313;DHT22;46892;45.668;11.756;2022-08-05T03:58:36;22.80;74.50
55313;DHT22;46892;45.668;11.756;2022-08-05T04:01:06;22.80;74.90
55313;DHT22;46892;45.668;11.756;2022-08-05T04:03:34;22.80;75.30
55313;DHT22;46892;45.668;11.756;2022-08-05T04:06:03;22.80;75.70
55313;DHT22;46892;45.668;11.756;2022-08-05T04:08:31;22.80;75.30
55313;DHT22;46892;45.668;11.756;2022-08-05T04:10:57;22.80;75.90
55313;DHT22;46892;45.668;11.756;2022-08-05T04:13:25;22.80;75.90
55313;DHT22;46892;45.668;11.756;2022-08-05T04:15:50;22.90;75.90
55313;DHT22;46892;45.668;11.756;2022-08-05T04:18:16;23.10;75.70
55313;DHT22;46892;45.668;11.756;2022-08-05T04:20:42;23.20;75.10
55313;DHT22;46892;45.668;11.756;2022-08-05T04:23:11;23.30;74.80
55313;DHT22;46892;45.668;11.756;2022-08-05T04:25:36;23.30;73.10
55313;DHT22;46892;45.668;11.756;2022-08-05T04:28:02;23.30;73.10
55313;DHT22;46892;45.668;11.756;2022-08-05T04:30:28;23.30;73.40
55313;DHT22;46892;45.668;11.756;2022-08-05T04:32:53;23.30;73.20
55313;DHT22;46892;45.668;11.756;2022-08-05T04:35:19;23.20;73.20
55313;DHT22;46892;45.668;11.756;2022-08-05T04:37:45;23.30;72.70
55313;DHT22;46892;45.668;11.756;2022-08-05T04:40:10;23.40;73.90
55313;DHT22;46892;45.668;11.756;2022-08-05T04:42:36;23.50;73.10
55313;DHT22;46892;45.668;11.756;2022-08-05T04:45:02;23.70;73.30
55313;DHT22;46892;45.668;11.756;2022-08-05T04:47:28;24.10;72.60
55313;DHT22;46892;45.668;11.756;2022-08-05T04:49:54;24.40;71.90
55313;DHT22;46892;45.668;11.756;2022-08-05T04:52:19;24.70;70.80
55313;DHT22;46892;45.668;11.756;2022-08-05T04:54:45;24.90;69.30
55313;DHT22;46892;45.668;11.756;2022-08-05T04:57:11;25.10;68.20
55313;DHT22;46892;45.668;11.756;2022-08-05T04:59:36;25.60;68.80
55313;DHT22;46892;45.668;11.756;2022-08-05T05:02:02;26.10;67.10
55313;DHT22;46892;45.668;11.756;2022-08-05T05:04:28;26.70;66.50
55313;DHT22;46892;45.668;11.756;2022-08-05T05:06:53;27.30;64.90
55313;DHT22;46892;45.668;11.756;2022-08-05T05:09:19;27.80;63.40
55313;DHT22;46892;45.668;11.756;2022-08-05T05:11:45;28.20;62.40
55313;DHT22;46892;45.668;11.756;2022-08-05T05:14:10;28.60;61.30
55313;DHT22;46892;45.668;11.756;2022-08-05T05:16:36;29.00;60.80
55313;DHT22;46892;45.668;11.756;2022-08-05T05:19:02;29.40;60.40
55313;DHT22;46892;45.668;11.756;2022-08-05T05:21:27;29.70;59.50
55313;DHT22;46892;45.668;11.756;2022-08-05T05:23:53;29.80;59.10
55313;DHT22;46892;45.668;11.756;2022-08-05T05:26:19;29.90;58.30
55313;DHT22;46892;45.668;11.756;2022-08-05T05:28:44;30.10;57.60
55313;DHT22;46892;45.668;11.756;2022-08-05T05:31:11;30.20;55.20
55313;DHT22;46892;45.668;11.756;2022-08-05T05:33:36;30.30;53.20
55313;DHT22;46892;45.668;11.756;2022-08-05T05:36:02;30.30;51.20
55313;DHT22;46892;45.668;11.756;2022-08-05T05:38:28;30.30;50.90
55313;DHT22;46892;45.668;11.756;2022-08-05T05:40:54;29.80;50.40
55313;DHT22;46892;45.668;11.756;2022-08-05T05:43:20;29.50;50.40
55313;DHT22;46892;45.668;11.756;2022-08-05T05:45:47;29.30;51.30
55313;DHT22;46892;45.668;11.756;2022-08-05T05:48:13;29.30;51.60
55313;DHT22;46892;45.668;11.756;2022-08-05T05:50:38;29.30;54.80
55313;DHT22;46892;45.668;11.756;2022-08-05T05:53:05;29.40;55.00
55313;DHT22;46892;45.668;11.756;2022-08-05T05:55:32;29.50;54.30
55313;DHT22;46892;45.668;11.756;2022-08-05T05:57:58;29.50;53.60
55313;DHT22;46892;45.668;11.756;2022-08-05T06:00:24;29.60;54.40
55313;DHT22;46892;45.668;11.756;2022-08-05T06:02:49;29.70;52.40
55313;DHT22;46892;45.668;11.756;2022-08-05T06:05:15;29.80;53.50
55313;DHT22;46892;45.668;11.756;2022-08-05T06:07:41;30.00;52.70
55313;DHT22;46892;45.668;11.756;2022-08-05T06:10:08;30.00;53.00
55313;DHT22;46892;45.668;11.756;2022-08-05T06:12:36;30.20;51.60
55313;DHT22;46892;45.668;11.756;2022-08-05T06:15:04;30.30;51.30
55313;DHT22;46892;45.668;11.756;2022-08-05T06:17:30;30.50;48.60
55313;DHT22;46892;45.668;11.756;2022-08-05T06:19:56;30.50;47.90
55313;DHT22;46892;45.668;11.756;2022-08-05T06:22:25;30.60;47.50
55313;DHT22;46892;45.668;11.756;2022-08-05T06:24:51;30.60;47.90
55313;DHT22;46892;45.668;11.756;2022-08-05T06:27:17;30.50;48.30
55313;DHT22;46892;45.668;11.756;2022-08-05T06:29:43;30.50;48.30
55313;DHT22;46892;45.668;11.756;2022-08-05T06:32:09;30.60;48.40
55313;DHT22;46892;45.668;11.756;2022-08-05T06:34:35;30.70;48.50
55313;DHT22;46892;45.668;11.756;2022-08-05T06:37:01;30.70;48.00
55313;DHT22;46892;45.668;11.756;2022-08-05T06:39:27;30.70;49.20
55313;DHT22;46892;45.668;11.756;2022-08-05T06:41:53;30.90;48.80
55313;DHT22;46892;45.668;11.756;2022-08-05T06:44:18;30.90;48.50
55313;DHT22;46892;45.668;11.756;2022-08-05T06:46:44;31.00;47.40
55313;DHT22;46892;45.668;11.756;2022-08-05T06:49:09;31.40;48.40
55313;DHT22;46892;45.668;11.756;2022-08-05T06:51:35;31.70;47.80
55313;DHT22;46892;45.668;11.756;2022-08-05T06:54:02;32.00;47.70
55313;DHT22;46892;45.668;11.756;2022-08-05T06:56:29;32.20;48.10
55313;DHT22;46892;45.668;11.756;2022-08-05T06:58:55;32.50;44.00
55313;DHT22;46892;45.668;11.756;2022-08-05T07:01:21;32.60;43.70
55313;DHT22;46892;45.668;11.756;2022-08-05T07:03:47;32.50;44.20
55313;DHT22;46892;45.668;11.756;2022-08-05T07:06:12;32.70;47.80
55313;DHT22;46892;45.668;11.756;2022-08-05T07:08:38;33.00;46.50
55313;DHT22;46892;45.668;11.756;2022-08-05T07:11:04;33.20;45.40
55313;DHT22;46892;45.668;11.756;2022-08-05T07:13:33;33.20;44.00
55313;DHT22;46892;45.668;11.756;2022-08-05T07:16:17;33.20;45.70
55313;DHT22;46892;45.668;11.756;2022-08-05T07:19:02;33.20;44.60
55313;DHT22;46892;45.668;11.756;2022-08-05T07:21:28;33.10;47.10
55313;DHT22;46892;45.668;11.756;2022-08-05T07:23:53;33.00;44.70
55313;DHT22;46892;45.668;11.756;2022-08-05T07:26:19;32.90;44.60
55313;DHT22;46892;45.668;11.756;2022-08-05T07:28:45;33.00;46.50
55313;DHT22;46892;45.668;11.756;2022-08-05T07:31:10;33.30;44.60
55313;DHT22;46892;45.668;11.756;2022-08-05T07:33:36;33.40;43.20
55313;DHT22;46892;45.668;11.756;2022-08-05T07:36:02;33.40;44.10
55313;DHT22;46892;45.668;11.756;2022-08-05T07:38:27;33.50;43.90
55313;DHT22;46892;45.668;11.756;2022-08-05T07:40:53;33.60;44.60
55313;DHT22;46892;45.668;11.756;2022-08-05T07:43:19;33.70;44.10
55313;DHT22;46892;45.668;11.756;2022-08-05T07:45:44;33.90;44.00
55313;DHT22;46892;45.668;11.756;2022-08-05T07:48:10;33.80;41.80
55313;DHT22;46892;45.668;11.756;2022-08-05T07:50:36;33.80;43.30
55313;DHT22;46892;45.668;11.756;2022-08-05T07:53:02;34.00;44.30
55313;DHT22;46892;45.668;11.756;2022-08-05T07:55:28;34.00;44.30
55313;DHT22;46892;45.668;11.756;2022-08-05T07:57:56;34.20;42.50
55313;DHT22;46892;45.668;11.756;2022-08-05T08:00:21;34.20;44.90
55313;DHT22;46892;45.668;11.756;2022-08-05T08:02:47;34.20;44.70
55313;DHT22;46892;45.668;11.756;2022-08-05T08:05:14;34.20;41.60
55313;DHT22;46892;45.668;11.756;2022-08-05T08:07:39;33.80;41.20
55313;DHT22;46892;45.668;11.756;2022-08-05T08:10:06;33.50;42.70
55313;DHT22;46892;45.668;11.756;2022-08-05T08:12:32;33.10;46.50
55313;DHT22;46892;45.668;11.756;2022-08-05T08:14:57;33.00;48.90
55313;DHT22;46892;45.668;11.756;2022-08-05T08:17:24;32.90;44.80
55313;DHT22;46892;45.668;11.756;2022-08-05T08:19:49;32.70;48.60
55313;DHT22;46892;45.668;11.756;2022-08-05T08:22:15;32.70;50.80
55313;DHT22;46892;45.668;11.756;2022-08-05T08:24:41;32.50;44.70
55313;DHT22;46892;45.668;11.756;2022-08-05T08:27:07;32.40;44.70
55313;DHT22;46892;45.668;11.756;2022-08-05T08:29:32;32.30;44.60
55313;DHT22;46892;45.668;11.756;2022-08-05T08:31:58;32.20;45.70
55313;DHT22;46892;45.668;11.756;2022-08-05T08:34:25;32.40;45.90
55313;DHT22;46892;45.668;11.756;2022-08-05T08:36:51;32.50;46.20
55313;DHT22;46892;45.668;11.756;2022-08-05T08:39:17;32.50;42.20
55313;DHT22;46892;45.668;11.756;2022-08-05T08:41:47;32.60;43.10
55313;DHT22;46892;45.668;11.756;2022-08-05T08:44:15;32.40;40.60
55313;DHT22;46892;45.668;11.756;2022-08-05T08:46:43;32.30;42.50
55313;DHT22;46892;45.668;11.756;2022-08-05T08:49:13;32.40;46.90
55313;DHT22;46892;45.668;11.756;2022-08-05T08:51:40;32.90;45.60
55313;DHT22;46892;45.668;11.756;2022-08-05T08:54:07;32.90;41.80
55313;DHT22;46892;45.668;11.756;2022-08-05T08:56:33;33.20;43.70
55313;DHT22;46892;45.668;11.756;2022-08-05T08:59:00;33.00;42.10
55313;DHT22;46892;45.668;11.756;2022-08-05T09:01:25;33.00;44.40
55313;DHT22;46892;45.668;11.756;2022-08-05T09:03:53;33.20;41.00
55313;DHT22;46892;45.668;11.756;2022-08-05T09:06:21;33.30;41.60
55313;DHT22;46892;45.668;11.756;2022-08-05T09:08:47;33.20;39.70
55313;DHT22;46892;45.668;11.756;2022-08-05T09:11:13;33.10;40.80
55313;DHT22;46892;45.668;11.756;2022-08-05T09:13:40;32.90;41.00
55313;DHT22;46892;45.668;11.756;2022-08-05T09:16:06;32.70;42.00
55313;DHT22;46892;45.668;11.756;2022-08-05T09:18:34;32.70;43.60
55313;DHT22;46892;45.668;11.756;2022-08-05T09:21:01;33.00;43.30
55313;DHT22;46892;45.668;11.756;2022-08-05T09:23:26;33.30;44.00
55313;DHT22;46892;45.668;11.756;2022-08-05T09:26:07;33.50;43.10
55313;DHT22;46892;45.668;11.756;2022-08-05T09:28:34;33.80;40.00
55313;DHT22;46892;45.668;11.756;2022-08-05T09:31:09;33.70;39.60
55313;DHT22;46892;45.668;11.756;2022-08-05T09:33:50;33.60;43.30
55313;DHT22;46892;45.668;11.756;2022-08-05T09:36:16;33.70;39.90
55313;DHT22;46892;45.668;11.756;2022-08-05T09:39:08;33.70;41.40
55313;DHT22;46892;45.668;11.756;2022-08-05T09:41:57;33.80;41.00
55313;DHT22;46892;45.668;11.756;2022-08-05T09:45:04;33.90;40.60
55313;DHT22;46892;45.668;11.756;2022-08-05T09:47:30;33.80;41.00
55313;DHT22;46892;45.668;11.756;2022-08-05T09:49:56;33.90;40.40
55313;DHT22;46892;45.668;11.756;2022-08-05T09:52:28;33.90;40.30
55313;DHT22;46892;45.668;11.756;2022-08-05T09:54:56;34.00;42.00
55313;DHT22;46892;45.668;11.756;2022-08-05T09:57:33;34.10;39.90
55313;DHT22;46892;45.668;11.756;2022-08-05T10:02:37;33.60;41.10
55313;DHT22;46892;45.668;11.756;2022-08-05T10:05:36;33.40;41.50
55313;DHT22;46892;45.668;11.756;2022-08-05T10:08:05;33.50;40.90
55313;DHT22;46892;45.668;11.756;2022-08-05T10:10:31;33.50;43.20
55313;DHT22;46892;45.668;11.756;2022-08-05T10:13:00;33.60;40.30
55313;DHT22;46892;45.668;11.756;2022-08-05T10:15:31;33.50;41.20
55313;DHT22;46892;45.668;11.756;2022-08-05T10:18:13;33.50;42.40
55313;DHT22;46892;45.668;11.756;2022-08-05T10:20:44;33.40;41.70
55313;DHT22;46892;45.668;11.756;2022-08-05T10:23:14;33.50;41.00
55313;DHT22;46892;45.668;11.756;2022-08-05T10:25:40;33.50;41.70
55313;DHT22;46892;45.668;11.756;2022-08-05T10:28:06;33.50;41.50
55313;DHT22;46892;45.668;11.756;2022-08-05T10:30:34;33.40;41.40
55313;DHT22;46892;45.668;11.756;2022-08-05T10:33:01;33.60;40.70
55313;DHT22;46892;45.668;11.756;2022-08-05T10:35:27;33.60;39.50
55313;DHT22;46892;45.668;11.756;2022-08-05T10:37:54;33.60;39.20
55313;DHT22;46892;45.668;11.756;2022-08-05T10:42:53;33.80;40.20
55313;DHT22;46892;45.668;11.756;2022-08-05T10:45:27;33.90;41.40
55313;DHT22;46892;45.668;11.756;2022-08-05T10:47:55;34.00;39.40
55313;DHT22;46892;45.668;11.756;2022-08-05T10:50:21;33.90;37.90
55313;DHT22;46892;45.668;11.756;2022-08-05T10:52:49;34.00;40.30
55313;DHT22;46892;45.668;11.756;2022-08-05T10:55:25;34.10;41.80
55313;DHT22;46892;45.668;11.756;2022-08-05T10:58:22;34.20;40.70
55313;DHT22;46892;45.668;11.756;2022-08-05T11:00:48;34.30;42.20
55313;DHT22;46892;45.668;11.756;2022-08-05T11:03:14;34.50;40.90
55313;DHT22;46892;45.668;11.756;2022-08-05T11:05:40;34.50;40.10
55313;DHT22;46892;45.668;11.756;2022-08-05T11:08:08;34.60;38.50
55313;DHT22;46892;45.668;11.756;2022-08-05T11:10:36;34.40;38.50
55313;DHT22;46892;45.668;11.756;2022-08-05T11:13:03;34.20;39.40
55313;DHT22;46892;45.668;11.756;2022-08-05T11:15:32;34.20;40.60
55313;DHT22;46892;45.668;11.756;2022-08-05T11:20:49;34.20;40.70
55313;DHT22;46892;45.668;11.756;2022-08-05T11:23:32;34.20;41.20
55313;DHT22;46892;45.668;11.756;2022-08-05T11:33:35;34.40;39.70
55313;DHT22;46892;45.668;11.756;2022-08-05T11:36:09;34.30;38.60
55313;DHT22;46892;45.668;11.756;2022-08-05T11:41:09;34.30;41.60
55313;DHT22;46892;45.668;11.756;2022-08-05T11:43:38;34.40;40.60
55313;DHT22;46892;45.668;11.756;2022-08-05T11:46:07;34.50;35.90
55313;DHT22;46892;45.668;11.756;2022-08-05T11:48:33;34.50;35.70
55313;DHT22;46892;45.668;11.756;2022-08-05T11:51:00;34.50;39.30
55313;DHT22;46892;45.668;11.756;2022-08-05T11:53:26;34.60;38.80
55313;DHT22;46892;45.668;11.756;2022-08-05T11:58:31;34.80;39.80
55313;DHT22;46892;45.668;11.756;2022-08-05T12:01:07;34.90;37.10
55313;DHT22;46892;45.668;11.756;2022-08-05T12:03:41;34.90;36.30
55313;DHT22;46892;45.668;11.756;2022-08-05T12:06:08;34.80;36.70
55313;DHT22;46892;45.668;11.756;2022-08-05T12:08:42;34.90;38.70
55313;DHT22;46892;45.668;11.756;2022-08-05T12:11:09;35.00;37.30
55313;DHT22;46892;45.668;11.756;2022-08-05T12:13:36;35.00;36.90
55313;DHT22;46892;45.668;11.756;2022-08-05T12:16:05;35.10;36.30
55313;DHT22;46892;45.668;11.756;2022-08-05T12:18:34;35.10;38.80
55313;DHT22;46892;45.668;11.756;2022-08-05T12:21:15;35.10;37.10
55313;DHT22;46892;45.668;11.756;2022-08-05T12:26:22;35.20;36.50
55313;DHT22;46892;45.668;11.756;2022-08-05T12:28:48;35.20;40.50
55313;DHT22;46892;45.668;11.756;2022-08-05T12:31:15;35.30;38.50
55313;DHT22;46892;45.668;11.756;2022-08-05T12:33:43;35.30;38.00
55313;DHT22;46892;45.668;11.756;2022-08-05T12:36:09;35.30;36.50
55313;DHT22;46892;45.668;11.756;2022-08-05T12:38:36;35.40;37.60
55313;DHT22;46892;45.668;11.756;2022-08-05T12:41:10;35.40;36.80
55313;DHT22;46892;45.668;11.756;2022-08-05T12:43:57;35.40;35.20
55313;DHT22;46892;45.668;11.756;2022-08-05T12:46:29;35.40;34.50
55313;DHT22;46892;45.668;11.756;2022-08-05T12:51:30;35.50;35.20
55313;DHT22;46892;45.668;11.756;2022-08-05T12:53:59;35.50;39.40
55313;DHT22;46892;45.668;11.756;2022-08-05T12:56:26;35.50;36.80
55313;DHT22;46892;45.668;11.756;2022-08-05T12:59:11;35.50;36.00
55313;DHT22;46892;45.668;11.756;2022-08-05T13:01:42;35.50;34.60
55313;DHT22;46892;45.668;11.756;2022-08-05T13:04:09;35.50;34.60
55313;DHT22;46892;45.668;11.756;2022-08-05T13:06:41;35.50;37.60
55313;DHT22;46892;45.668;11.756;2022-08-05T13:09:09;35.40;38.00
55313;DHT22;46892;45.668;11.756;2022-08-05T13:11:38;35.40;37.10
55313;DHT22;46892;45.668;11.756;2022-08-05T13:16:48;35.50;36.40
55313;DHT22;46892;45.668;11.756;2022-08-05T13:19:14;35.40;36.60
55313;DHT22;46892;45.668;11.756;2022-08-05T13:21:40;35.50;36.60
55313;DHT22;46892;45.668;11.756;2022-08-05T13:24:07;35.60;35.30
55313;DHT22;46892;45.668;11.756;2022-08-05T13:26:32;35.60;37.00
55313;DHT22;46892;45.668;11.756;2022-08-05T13:28:58;35.60;37.20
55313;DHT22;46892;45.668;11.756;2022-08-05T13:31:24;35.60;35.50
55313;DHT22;46892;45.668;11.756;2022-08-05T13:33:50;35.60;37.30
55313;DHT22;46892;45.668;11.756;2022-08-05T13:36:15;35.60;36.10
55313;DHT22;46892;45.668;11.756;2022-08-05T13:38:41;35.50;36.30
55313;DHT22;46892;45.668;11.756;2022-08-05T13:41:06;35.60;36.60
55313;DHT22;46892;45.668;11.756;2022-08-05T13:43:32;35.70;36.00
55313;DHT22;46892;45.668;11.756;2022-08-05T13:45:58;35.70;35.20
55313;DHT22;46892;45.668;11.756;2022-08-05T13:48:23;35.70;38.20
55313;DHT22;46892;45.668;11.756;2022-08-05T13:50:49;35.60;36.20
55313;DHT22;46892;45.668;11.756;2022-08-05T13:53:14;35.60;34.50
55313;DHT22;46892;45.668;11.756;2022-08-05T13:55:40;35.60;35.80
55313;DHT22;46892;45.668;11.756;2022-08-05T13:58:06;35.60;37.50
55313;DHT22;46892;45.668;11.756;2022-08-05T14:00:31;35.70;35.20
55313;DHT22;46892;45.668;11.756;2022-08-05T14:02:57;35.70;36.50
55313;DHT22;46892;45.668;11.756;2022-08-05T14:05:23;35.60;35.50
55313;DHT22;46892;45.668;11.756;2022-08-05T14:07:49;35.60;36.50
55313;DHT22;46892;45.668;11.756;2022-08-05T14:10:20;35.70;36.40
55313;DHT22;46892;45.668;11.756;2022-08-05T14:12:48;35.70;37.20
55313;DHT22;46892;45.668;11.756;2022-08-05T14:15:14;35.70;36.30
55313;DHT22;46892;45.668;11.756;2022-08-05T14:17:40;35.60;38.60
55313;DHT22;46892;45.668;11.756;2022-08-05T14:20:06;35.60;37.10
55313;DHT22;46892;45.668;11.756;2022-08-05T14:22:32;35.70;36.50
55313;DHT22;46892;45.668;11.756;2022-08-05T14:24:59;35.70;37.40
55313;DHT22;46892;45.668;11.756;2022-08-05T14:27:25;35.70;35.40
55313;DHT22;46892;45.668;11.756;2022-08-05T14:29:50;35.70;35.90
55313;DHT22;46892;45.668;11.756;2022-08-05T14:32:16;35.70;34.50
55313;DHT22;46892;45.668;11.756;2022-08-05T14:34:41;35.60;36.20
55313;DHT22;46892;45.668;11.756;2022-08-05T14:37:07;35.70;39.90
55313;DHT22;46892;45.668;11.756;2022-08-05T14:39:33;35.70;36.80
55313;DHT22;46892;45.668;11.756;2022-08-05T14:41:59;35.60;36.90
55313;DHT22;46892;45.668;11.756;2022-08-05T14:44:25;35.60;36.70
55313;DHT22;46892;45.668;11.756;2022-08-05T14:46:51;35.70;36.40
55313;DHT22;46892;45.668;11.756;2022-08-05T14:49:16;35.70;34.70
55313;DHT22;46892;45.668;11.756;2022-08-05T14:51:42;35.70;37.50
55313;DHT22;46892;45.668;11.756;2022-08-05T14:54:08;35.70;36.50
55313;DHT22;46892;45.668;11.756;2022-08-05T14:56:34;35.70;36.60
55313;DHT22;46892;45.668;11.756;2022-08-05T14:59:00;35.70;34.40
55313;DHT22;46892;45.668;11.756;2022-08-05T15:01:26;35.70;34.20
55313;DHT22;46892;45.668;11.756;2022-08-05T15:03:52;35.70;34.30
55313;DHT22;46892;45.668;11.756;2022-08-05T15:06:18;35.70;38.10
55313;DHT22;46892;45.668;11.756;2022-08-05T15:08:44;35.70;36.50
55313;DHT22;46892;45.668;11.756;2022-08-05T15:11:10;35.70;36.50
55313;DHT22;46892;45.668;11.756;2022-08-05T15:13:36;35.70;37.20
55313;DHT22;46892;45.668;11.756;2022-08-05T15:16:02;35.70;35.40
55313;DHT22;46892;45.668;11.756;2022-08-05T15:18:28;35.70;36.90
55313;DHT22;46892;45.668;11.756;2022-08-05T15:20:54;35.60;37.40
55313;DHT22;46892;45.668;11.756;2022-08-05T15:23:19;35.70;35.60
55313;DHT22;46892;45.668;11.756;2022-08-05T15:25:45;35.60;33.00
55313;DHT22;46892;45.668;11.756;2022-08-05T15:28:12;35.60;36.30
55313;DHT22;46892;45.668;11.756;2022-08-05T15:30:38;35.60;34.10
55313;DHT22;46892;45.668;11.756;2022-08-05T15:33:04;35.60;34.80
55313;DHT22;46892;45.668;11.756;2022-08-05T15:35:31;35.50;34.30
55313;DHT22;46892;45.668;11.756;2022-08-05T15:37:56;35.50;34.90
55313;DHT22;46892;45.668;11.756;2022-08-05T15:40:22;35.40;34.20
55313;DHT22;46892;45.668;11.756;2022-08-05T15:42:48;35.30;33.70
55313;DHT22;46892;45.668;11.756;2022-08-05T15:45:14;35.40;39.50
55313;DHT22;46892;45.668;11.756;2022-08-05T15:47:40;35.40;36.60
55313;DHT22;46892;45.668;11.756;2022-08-05T15:50:08;35.50;37.10
55313;DHT22;46892;45.668;11.756;2022-08-05T15:52:34;35.50;35.60
55313;DHT22;46892;45.668;11.756;2022-08-05T15:55:05;35.50;35.00
55313;DHT22;46892;45.668;11.756;2022-08-05T15:57:31;35.30;35.30
55313;DHT22;46892;45.668;11.756;2022-08-05T15:59:57;35.40;38.10
55313;DHT22;46892;45.668;11.756;2022-08-05T16:02:23;35.40;34.80
55313;DHT22;46892;45.668;11.756;2022-08-05T16:04:48;35.40;36.10
55313;DHT22;46892;45.668;11.756;2022-08-05T16:07:14;35.40;34.00
55313;DHT22;46892;45.668;11.756;2022-08-05T16:09:40;35.30;36.80
55313;DHT22;46892;45.668;11.756;2022-08-05T16:12:07;35.40;40.40
55313;DHT22;46892;45.668;11.756;2022-08-05T16:14:33;35.40;38.00
55313;DHT22;46892;45.668;11.756;2022-08-05T16:16:59;35.40;36.60
55313;DHT22;46892;45.668;11.756;2022-08-05T16:19:25;35.50;40.00
55313;DHT22;46892;45.668;11.756;2022-08-05T16:21:51;35.30;37.00
55313;DHT22;46892;45.668;11.756;2022-08-05T16:24:16;35.40;41.30
55313;DHT22;46892;45.668;11.756;2022-08-05T16:26:56;35.40;42.60
55313;DHT22;46892;45.668;11.756;2022-08-05T16:29:22;35.30;37.10
55313;DHT22;46892;45.668;11.756;2022-08-05T16:31:48;35.30;34.20
55313;DHT22;46892;45.668;11.756;2022-08-05T16:34:15;35.30;35.90
55313;DHT22;46892;45.668;11.756;2022-08-05T16:36:41;35.20;37.00
55313;DHT22;46892;45.668;11.756;2022-08-05T16:39:07;35.20;37.90
55313;DHT22;46892;45.668;11.756;2022-08-05T16:41:33;35.20;40.60
55313;DHT22;46892;45.668;11.756;2022-08-05T16:44:02;35.20;40.30
55313;DHT22;46892;45.668;11.756;2022-08-05T16:46:28;35.20;39.00
55313;DHT22;46892;45.668;11.756;2022-08-05T16:48:54;35.30;40.10
55313;DHT22;46892;45.668;11.756;2022-08-05T16:51:19;35.30;41.10
55313;DHT22;46892;45.668;11.756;2022-08-05T16:53:45;35.40;40.00
55313;DHT22;46892;45.668;11.756;2022-08-05T16:56:11;35.30;40.00
55313;DHT22;46892;45.668;11.756;2022-08-05T16:58:36;35.40;39.10
55313;DHT22;46892;45.668;11.756;2022-08-05T17:01:03;35.40;37.80
55313;DHT22;46892;45.668;11.756;2022-08-05T17:03:29;35.40;39.20
55313;DHT22;46892;45.668;11.756;2022-08-05T17:05:54;35.40;38.70
55313;DHT22;46892;45.668;11.756;2022-08-05T17:08:21;35.40;37.90
55313;DHT22;46892;45.668;11.756;2022-08-05T17:10:46;35.50;41.50
55313;DHT22;46892;45.668;11.756;2022-08-05T17:13:12;35.60;40.20
55313;DHT22;46892;45.668;11.756;2022-08-05T17:15:38;35.30;40.90
55313;DHT22;46892;45.668;11.756;2022-08-05T17:18:04;35.10;37.40
55313;DHT22;46892;45.668;11.756;2022-08-05T17:20:29;35.10;38.10
55313;DHT22;46892;45.668;11.756;2022-08-05T17:22:55;35.10;38.70